sensor_id;sensor_type;location;lat;lon;timestamp;temperature;humidity
13673;DHT22;6909;52.202;9.876;2022-12-18T00:02:26;-7.40;99.90
13673;DHT22;6909;52.202;9.876;2022-12-18T00:04:53;-7.40;1.00
13673;DHT22;6909;52.202;9.876;2022-12-18T00:07:20;-7.40;1.00
13673;DHT22;6909;52.202;9.876;2022-12-18T00:09:47;-7.60;99.90
13673;DHT22;6909;52.202;9.876;2022-12-18T00:12:14;-7.70;96.10
13673;DHT22;6909;52.202;9.876;2022-12-18T00:14:41;-7.70;99.90
13673;DHT22;6909;52.202;9.876;2022-12-18T00:17:09;-7.70;99.90
13673;DHT22;6909;52.202;9.876;2022-12-18T00:19:35;-7.70;99.90
13673;DHT22;6909;52.202;9.876;2022-12-18T00:22:02;-7.70;1.00
13673;DHT22;6909;52.202;9.876;2022-12-18T00:24:29;-7.70;1.00
13673;DHT22;6909;52.202;9.876;2022-12-18T00:26:56;-7.60;1.00
13673;DHT22;6909;52.202;9.876;2022-12-18T00:29:22;-7.50;99.90
13673;DHT22;6909;52.202;9.876;2022-12-18T00:31:49;-7.50;99.90
13673;DHT22;6909;52.202;9.876;2022-12-18T00:34:17;-7.50;99.90
13673;DHT22;6909;52.202;9.876;2022-12-18T00:36:47;-7.40;1.00
13673;DHT22;6909;52.202;9.876;2022-12-18T00:39:13;-7.30;1.00
13673;DHT22;6909;52.202;9.876;2022-12-18T00:41:40;-7.30;1.00
13673;DHT22;6909;52.202;9.876;2022-12-18T00:44:25;-7.40;1.00
13673;DHT22;6909;52.202;9.876;2022-12-18T00:46:54;-7.50;1.00
13673;DHT22;6909;52.202;9.876;2022-12-18T00:49:22;-7.50;1.00
13673;DHT22;6909;52.202;9.876;2022-12-18T00:51:49;-7.50;1.00
13673;DHT22;6909;52.202;9.876;2022-12-18T00:54:16;-7.60;1.00
13673;DHT22;6909;52.202;9.876;2022-12-18T00:56:43;-7.60;1.00
13673;DHT22;6909;52.202;9.876;2022-12-18T00:59:10;-7.70;1.00
13673;DHT22;6909;52.202;9.876;2022-12-18T01:01:37;-7.90;99.90
13673;DHT22;6909;52.202;9.876;2022-12-18T01:04:04;-8.00;1.00
13673;DHT22;6909;52.202;9.876;2022-12-18T01:06:34;-8.00;99.90
13673;DHT22;6909;52.202;9.876;2022-12-18T01:09:01;-7.90;99.90
13673;DHT22;6909;52.202;9.876;2022-12-18T01:11:28;-8.10;1.00
13673;DHT22;6909;52.202;9.876;2022-12-18T01:13:55;-8.20;1.00
13673;DHT22;6909;52.202;9.876;2022-12-18T01:16:23;-8.30;1.00
13673;DHT22;6909;52.202;9.876;2022-12-18T01:18:52;-8.00;99.90
13673;DHT22;6909;52.202;9.876;2022-12-18T01:21:20;-7.80;16.90
13673;DHT22;6909;52.202;9.876;2022-12-18T01:23:51;-7.40;1.00
13673;DHT22;6909;52.202;9.876;2022-12-18T01:26:18;-7.20;1.00
13673;DHT22;6909;52.202;9.876;2022-12-18T01:28:45;-7.40;1.00
13673;DHT22;6909;52.202;9.876;2022-12-18T01:31:14;-7.30;1.00
13673;DHT22;6909;52.202;9.876;2022-12-18T01:33:41;-7.50;99.90
13673;DHT22;6909;52.202;9.876;2022-12-18T01:36:08;-7.40;1.00
13673;DHT22;6909;52.202;9.876;2022-12-18T01:38:35;-7.70;99.90
13673;DHT22;6909;52.202;9.876;2022-12-18T01:41:03;-7.70;59.60
13673;DHT22;6909;52.202;9.876;2022-12-18T01:43:44;-7.90;1.00
13673;DHT22;6909;52.202;9.876;2022-12-18T01:46:11;-8.00;99.90
13673;DHT22;6909;52.202;9.876;2022-12-18T01:48:39;-8.20;1.00
13673;DHT22;6909;52.202;9.876;2022-12-18T01:51:07;-8.30;1.00
13673;DHT22;6909;52.202;9.876;2022-12-18T01:53:34;-8.50;99.90
13673;DHT22;6909;52.202;9.876;2022-12-18T01:56:04;-8.40;1.00
13673;DHT22;6909;52.202;9.876;2022-12-18T01:58:39;-8.60;99.90
13673;DHT22;6909;52.202;9.876;2022-12-18T02:01:08;-8.50;1.00
13673;DHT22;6909;52.202;9.876;2022-12-18T02:03:35;-8.60;1.00
13673;DHT22;6909;52.202;9.876;2022-12-18T02:06:09;-8.40;99.90
13673;DHT22;6909;52.202;9.876;2022-12-18T02:08:43;-8.10;1.00
13673;DHT22;6909;52.202;9.876;2022-12-18T02:11:18;-7.90;1.00
13673;DHT22;6909;52.202;9.876;2022-12-18T02:13:54;-7.90;1.00
13673;DHT22;6909;52.202;9.876;2022-12-18T02:16:25;-7.80;1.00
13673;DHT22;6909;52.202;9.876;2022-12-18T02:18:58;-7.80;99.90
13673;DHT22;6909;52.202;9.876;2022-12-18T02:21:32;-7.50;99.90
13673;DHT22;6909;52.202;9.876;2022-12-18T02:24:13;-7.30;66.20
13673;DHT22;6909;52.202;9.876;2022-12-18T02:26:46;-6.80;57.20
13673;DHT22;6909;52.202;9.876;2022-12-18T02:29:17;-6.50;1.00
13673;DHT22;6909;52.202;9.876;2022-12-18T02:31:50;-6.90;1.00
13673;DHT22;6909;52.202;9.876;2022-12-18T02:34:19;-6.20;1.00
13673;DHT22;6909;52.202;9.876;2022-12-18T02:36:48;-5.70;1.00
13673;DHT22;6909;52.202;9.876;2022-12-18T02:39:16;-5.40;44.50
13673;DHT22;6909;52.202;9.876;2022-12-18T02:41:45;-5.40;99.90
13673;DHT22;6909;52.202;9.876;2022-12-18T02:44:12;-5.20;99.90
13673;DHT22;6909;52.202;9.876;2022-12-18T02:46:41;-5.20;24.20
13673;DHT22;6909;52.202;9.876;2022-12-18T02:49:22;-5.10;1.00
13673;DHT22;6909;52.202;9.876;2022-12-18T02:51:53;-5.10;1.00
13673;DHT22;6909;52.202;9.876;2022-12-18T02:54:31;-4.90;99.90
13673;DHT22;6909;52.202;9.876;2022-12-18T02:57:08;-5.30;1.00
13673;DHT22;6909;52.202;9.876;2022-12-18T02:59:39;-5.70;99.90
13673;DHT22;6909;52.202;9.876;2022-12-18T03:02:12;-5.90;99.90
13673;DHT22;6909;52.202;9.876;2022-12-18T03:04:48;-6.10;1.00
13673;DHT22;6909;52.202;9.876;2022-12-18T03:07:20;-6.50;1.00
13673;DHT22;6909;52.202;9.876;2022-12-18T03:09:50;-6.80;1.00
13673;DHT22;6909;52.202;9.876;2022-12-18T03:12:21;-6.90;1.00
13673;DHT22;6909;52.202;9.876;2022-12-18T03:14:54;-6.90;1.00
13673;DHT22;6909;52.202;9.876;2022-12-18T03:17:24;-7.10;1.00
13673;DHT22;6909;52.202;9.876;2022-12-18T03:19:53;-7.20;1.00
13673;DHT22;6909;52.202;9.876;2022-12-18T03:22:23;-7.20;13.50
13673;DHT22;6909;52.202;9.876;2022-12-18T03:24:54;-7.20;99.90
13673;DHT22;6909;52.202;9.876;2022-12-18T03:27:25;-7.40;54.30
13673;DHT22;6909;52.202;9.876;2022-12-18T03:29:57;-7.50;99.90
13673;DHT22;6909;52.202;9.876;2022-12-18T03:32:38;-7.20;1.00
13673;DHT22;6909;52.202;9.876;2022-12-18T03:35:07;-6.30;1.00
13673;DHT22;6909;52.202;9.876;2022-12-18T03:37:35;-5.60;99.90
13673;DHT22;6909;52.202;9.876;2022-12-18T03:40:02;-5.20;1.00
13673;DHT22;6909;52.202;9.876;2022-12-18T03:42:34;-4.90;1.00
13673;DHT22;6909;52.202;9.876;2022-12-18T03:45:09;-4.70;99.90
13673;DHT22;6909;52.202;9.876;2022-12-18T03:47:39;-4.60;6.40
13673;DHT22;6909;52.202;9.876;2022-12-18T03:50:12;-4.50;1.00
13673;DHT22;6909;52.202;9.876;2022-12-18T03:52:44;-4.40;1.00
13673;DHT22;6909;52.202;9.876;2022-12-18T03:55:12;-4.10;18.20
13673;DHT22;6909;52.202;9.876;2022-12-18T03:57:42;-4.00;1.00
13673;DHT22;6909;52.202;9.876;2022-12-18T04:00:11;-4.00;1.00
13673;DHT22;6909;52.202;9.876;2022-12-18T04:02:42;-4.00;1.00
13673;DHT22;6909;52.202;9.876;2022-12-18T04:05:10;-4.00;99.90
13673;DHT22;6909;52.202;9.876;2022-12-18T04:07:39;-4.10;1.00
13673;DHT22;6909;52.202;9.876;2022-12-18T04:10:07;-4.20;1.00
13673;DHT22;6909;52.202;9.876;2022-12-18T04:12:37;-4.20;1.00
13673;DHT22;6909;52.202;9.876;2022-12-18T04:15:07;-4.30;1.00
13673;DHT22;6909;52.202;9.876;2022-12-18T04:17:34;-4.30;1.00
13673;DHT22;6909;52.202;9.876;2022-12-18T04:20:03;-4.40;1.00
13673;DHT22;6909;52.202;9.876;2022-12-18T04:22:30;-4.40;1.00
13673;DHT22;6909;52.202;9.876;2022-12-18T04:24:56;-4.50;1.00
13673;DHT22;6909;52.202;9.876;2022-12-18T04:27:23;-4.40;1.00
13673;DHT22;6909;52.202;9.876;2022-12-18T04:29:50;-4.40;1.00
13673;DHT22;6909;52.202;9.876;2022-12-18T04:32:18;-4.40;1.00
13673;DHT22;6909;52.202;9.876;2022-12-18T04:34:45;-4.30;99.90
13673;DHT22;6909;52.202;9.876;2022-12-18T04:37:11;-4.20;1.00
13673;DHT22;6909;52.202;9.876;2022-12-18T04:39:38;-4.20;1.00
13673;DHT22;6909;52.202;9.876;2022-12-18T04:42:07;-4.00;1.00
13673;DHT22;6909;52.202;9.876;2022-12-18T04:44:34;-4.00;1.00
13673;DHT22;6909;52.202;9.876;2022-12-18T04:47:01;-4.00;99.90
13673;DHT22;6909;52.202;9.876;2022-12-18T04:49:29;-4.00;99.90
13673;DHT22;6909;52.202;9.876;2022-12-18T04:51:55;-4.30;1.00
13673;DHT22;6909;52.202;9.876;2022-12-18T04:54:22;-4.50;1.00
13673;DHT22;6909;52.202;9.876;2022-12-18T04:56:49;-4.40;1.00
13673;DHT22;6909;52.202;9.876;2022-12-18T04:59:16;-4.30;1.00
13673;DHT22;6909;52.202;9.876;2022-12-18T05:01:42;-4.20;1.00
13673;DHT22;6909;52.202;9.876;2022-12-18T05:04:09;-4.30;1.00
13673;DHT22;6909;52.202;9.876;2022-12-18T05:06:37;-4.40;1.00
13673;DHT22;6909;52.202;9.876;2022-12-18T05:09:04;-4.50;1.00
13673;DHT22;6909;52.202;9.876;2022-12-18T05:11:33;-4.50;1.00
13673;DHT22;6909;52.202;9.876;2022-12-18T05:14:00;-4.50;1.00
13673;DHT22;6909;52.202;9.876;2022-12-18T05:16:27;-4.50;1.00
13673;DHT22;6909;52.202;9.876;2022-12-18T05:18:54;-4.40;1.00
13673;DHT22;6909;52.202;9.876;2022-12-18T05:21:20;-4.50;1.00
13673;DHT22;6909;52.202;9.876;2022-12-18T05:23:48;-4.50;1.00
13673;DHT22;6909;52.202;9.876;2022-12-18T05:26:17;-4.60;1.00
13673;DHT22;6909;52.202;9.876;2022-12-18T05:28:45;-4.80;1.00
13673;DHT22;6909;52.202;9.876;2022-12-18T05:31:12;-4.90;1.00
13673;DHT22;6909;52.202;9.876;2022-12-18T05:33:39;-5.00;1.00
13673;DHT22;6909;52.202;9.876;2022-12-18T05:36:08;-5.00;1.00
13673;DHT22;6909;52.202;9.876;2022-12-18T05:38:37;-5.00;1.00
13673;DHT22;6909;52.202;9.876;2022-12-18T05:41:06;-5.10;1.00
13673;DHT22;6909;52.202;9.876;2022-12-18T05:43:34;-4.90;1.00
13673;DHT22;6909;52.202;9.876;2022-12-18T05:46:04;-4.80;1.00
13673;DHT22;6909;52.202;9.876;2022-12-18T05:48:31;-4.60;1.00
13673;DHT22;6909;52.202;9.876;2022-12-18T05:51:03;-4.40;1.00
13673;DHT22;6909;52.202;9.876;2022-12-18T05:53:30;-4.50;1.00
13673;DHT22;6909;52.202;9.876;2022-12-18T05:56:00;-4.60;1.00
13673;DHT22;6909;52.202;9.876;2022-12-18T05:58:28;-4.60;99.90
13673;DHT22;6909;52.202;9.876;2022-12-18T06:01:07;-4.60;99.90
13673;DHT22;6909;52.202;9.876;2022-12-18T06:03:34;-4.50;1.00
13673;DHT22;6909;52.202;9.876;2022-12-18T06:06:00;-4.40;1.00
13673;DHT22;6909;52.202;9.876;2022-12-18T06:08:27;-4.30;1.00
13673;DHT22;6909;52.202;9.876;2022-12-18T06:10:54;-4.30;99.90
13673;DHT22;6909;52.202;9.876;2022-12-18T06:13:22;-4.50;99.90
13673;DHT22;6909;52.202;9.876;2022-12-18T06:15:50;-4.50;99.90
13673;DHT22;6909;52.202;9.876;2022-12-18T06:18:17;-4.40;99.90
13673;DHT22;6909;52.202;9.876;2022-12-18T06:20:43;-4.20;99.90
13673;DHT22;6909;52.202;9.876;2022-12-18T06:23:10;-4.10;99.90
13673;DHT22;6909;52.202;9.876;2022-12-18T06:25:38;-4.10;99.90
13673;DHT22;6909;52.202;9.876;2022-12-18T06:28:05;-4.00;99.90
13673;DHT22;6909;52.202;9.876;2022-12-18T06:30:32;-4.00;99.90
13673;DHT22;6909;52.202;9.876;2022-12-18T06:33:00;-3.90;99.90
13673;DHT22;6909;52.202;9.876;2022-12-18T06:35:27;-3.90;99.90
13673;DHT22;6909;52.202;9.876;2022-12-18T06:37:54;-3.90;99.90
13673;DHT22;6909;52.202;9.876;2022-12-18T06:40:20;-4.00;99.90
13673;DHT22;6909;52.202;9.876;2022-12-18T06:42:47;-4.10;99.90
13673;DHT22;6909;52.202;9.876;2022-12-18T06:45:15;-3.90;99.90
13673;DHT22;6909;52.202;9.876;2022-12-18T06:47:42;-3.90;99.90
13673;DHT22;6909;52.202;9.876;2022-12-18T06:50:11;-3.90;99.90
13673;DHT22;6909;52.202;9.876;2022-12-18T06:52:37;-3.80;99.90
13673;DHT22;6909;52.202;9.876;2022-12-18T06:55:06;-3.90;99.90
13673;DHT22;6909;52.202;9.876;2022-12-18T06:57:34;-3.80;99.90
13673;DHT22;6909;52.202;9.876;2022-12-18T07:00:01;-3.70;99.90
13673;DHT22;6909;52.202;9.876;2022-12-18T07:02:28;-3.60;99.90
13673;DHT22;6909;52.202;9.876;2022-12-18T07:04:55;-3.80;99.90
13673;DHT22;6909;52.202;9.876;2022-12-18T07:07:23;-3.70;99.90
13673;DHT22;6909;52.202;9.876;2022-12-18T07:09:50;-3.70;99.90
13673;DHT22;6909;52.202;9.876;2022-12-18T07:12:17;-3.50;99.90
13673;DHT22;6909;52.202;9.876;2022-12-18T07:14:44;-3.50;99.90
13673;DHT22;6909;52.202;9.876;2022-12-18T07:17:11;-3.40;99.90
13673;DHT22;6909;52.202;9.876;2022-12-18T07:19:38;-3.40;99.90
13673;DHT22;6909;52.202;9.876;2022-12-18T07:22:05;-3.30;99.90
13673;DHT22;6909;52.202;9.876;2022-12-18T07:24:33;-3.30;99.90
13673;DHT22;6909;52.202;9.876;2022-12-18T07:27:00;-3.40;99.90
13673;DHT22;6909;52.202;9.876;2022-12-18T07:29:27;-3.40;99.90
13673;DHT22;6909;52.202;9.876;2022-12-18T07:31:54;-3.40;99.90
13673;DHT22;6909;52.202;9.876;2022-12-18T07:34:21;-3.30;99.90
13673;DHT22;6909;52.202;9.876;2022-12-18T07:36:47;-3.30;99.90
13673;DHT22;6909;52.202;9.876;2022-12-18T07:39:17;-3.40;69.30
13673;DHT22;6909;52.202;9.876;2022-12-18T07:41:45;-3.30;99.40
13673;DHT22;6909;52.202;9.876;2022-12-18T07:44:32;-3.20;99.90
13673;DHT22;6909;52.202;9.876;2022-12-18T07:46:58;-3.20;99.90
13673;DHT22;6909;52.202;9.876;2022-12-18T07:49:25;-3.00;99.90
13673;DHT22;6909;52.202;9.876;2022-12-18T07:55:14;-2.20;99.90
13673;DHT22;6909;52.202;9.876;2022-12-18T07:57:42;-1.90;99.90
13673;DHT22;6909;52.202;9.876;2022-12-18T08:03:28;-1.50;99.90
13673;DHT22;6909;52.202;9.876;2022-12-18T08:05:58;-1.30;99.90
13673;DHT22;6909;52.202;9.876;2022-12-18T08:08:25;-1.10;1.00
13673;DHT22;6909;52.202;9.876;2022-12-18T08:10:52;-1.10;99.90
13673;DHT22;6909;52.202;9.876;2022-12-18T08:13:21;-1.10;99.90
13673;DHT22;6909;52.202;9.876;2022-12-18T08:15:55;-1.00;99.90
13673;DHT22;6909;52.202;9.876;2022-12-18T08:18:22;-0.70;1.00
13673;DHT22;6909;52.202;9.876;2022-12-18T08:20:49;-0.30;1.00
13673;DHT22;6909;52.202;9.876;2022-12-18T08:23:16;-0.20;1.00
13673;DHT22;6909;52.202;9.876;2022-12-18T08:25:43;0.10;1.00
13673;DHT22;6909;52.202;9.876;2022-12-18T08:28:10;0.10;1.00
13673;DHT22;6909;52.202;9.876;2022-12-18T08:30:38;-0.20;99.90
13673;DHT22;6909;52.202;9.876;2022-12-18T08:33:05;-0.20;99.90
13673;DHT22;6909;52.202;9.876;2022-12-18T08:35:35;-0.50;99.90
13673;DHT22;6909;52.202;9.876;2022-12-18T08:38:02;-0.50;99.90
13673;DHT22;6909;52.202;9.876;2022-12-18T08:40:29;-0.60;29.50
13673;DHT22;6909;52.202;9.876;2022-12-18T08:42:56;-0.60;1.00
13673;DHT22;6909;52.202;9.876;2022-12-18T08:45:42;-0.40;64.70
13673;DHT22;6909;52.202;9.876;2022-12-18T08:48:09;-0.20;81.70
13673;DHT22;6909;52.202;9.876;2022-12-18T08:50:35;0.10;99.90
13673;DHT22;6909;52.202;9.876;2022-12-18T08:53:02;0.40;99.90
13673;DHT22;6909;52.202;9.876;2022-12-18T08:55:29;0.80;1.00
13673;DHT22;6909;52.202;9.876;2022-12-18T08:57:56;1.10;1.00
13673;DHT22;6909;52.202;9.876;2022-12-18T09:00:22;1.30;1.00
13673;DHT22;6909;52.202;9.876;2022-12-18T09:02:50;0.90;99.90
13673;DHT22;6909;52.202;9.876;2022-12-18T09:05:17;0.50;1.00
13673;DHT22;6909;52.202;9.876;2022-12-18T09:07:44;0.00;1.00
13673;DHT22;6909;52.202;9.876;2022-12-18T09:10:11;-0.10;1.00
13673;DHT22;6909;52.202;9.876;2022-12-18T09:12:37;0.10;1.00
13673;DHT22;6909;52.202;9.876;2022-12-18T09:15:05;0.10;1.00
13673;DHT22;6909;52.202;9.876;2022-12-18T09:17:32;0.20;1.00
13673;DHT22;6909;52.202;9.876;2022-12-18T09:20:00;0.00;1.00
13673;DHT22;6909;52.202;9.876;2022-12-18T09:22:27;0.20;1.00
13673;DHT22;6909;52.202;9.876;2022-12-18T09:24:54;0.40;1.00
13673;DHT22;6909;52.202;9.876;2022-12-18T09:27:21;0.40;1.00
13673;DHT22;6909;52.202;9.876;2022-12-18T09:29:47;0.20;1.00
13673;DHT22;6909;52.202;9.876;2022-12-18T09:32:14;-0.20;99.90
13673;DHT22;6909;52.202;9.876;2022-12-18T09:34:41;-0.30;99.90
13673;DHT22;6909;52.202;9.876;2022-12-18T09:37:09;-0.30;99.90
13673;DHT22;6909;52.202;9.876;2022-12-18T09:39:36;-0.40;64.10
13673;DHT22;6909;52.202;9.876;2022-12-18T09:42:03;-0.40;18.20
13673;DHT22;6909;52.202;9.876;2022-12-18T09:44:35;-0.50;1.00
13673;DHT22;6909;52.202;9.876;2022-12-18T09:47:10;-0.70;1.00
13673;DHT22;6909;52.202;9.876;2022-12-18T09:49:41;-0.80;1.00
13673;DHT22;6909;52.202;9.876;2022-12-18T09:52:14;-0.70;1.00
13673;DHT22;6909;52.202;9.876;2022-12-18T09:54:45;-0.70;1.00
13673;DHT22;6909;52.202;9.876;2022-12-18T09:57:14;-0.60;1.00
13673;DHT22;6909;52.202;9.876;2022-12-18T09:59:43;-0.40;1.00
13673;DHT22;6909;52.202;9.876;2022-12-18T10:02:16;-0.30;1.00
13673;DHT22;6909;52.202;9.876;2022-12-18T10:04:43;-0.20;1.00
13673;DHT22;6909;52.202;9.876;2022-12-18T10:07:17;-0.10;1.00
13673;DHT22;6909;52.202;9.876;2022-12-18T10:09:53;0.00;1.00
13673;DHT22;6909;52.202;9.876;2022-12-18T10:12:27;0.10;1.00
13673;DHT22;6909;52.202;9.876;2022-12-18T10:15:00;0.20;1.00
13673;DHT22;6909;52.202;9.876;2022-12-18T10:17:35;0.20;1.00
13673;DHT22;6909;52.202;9.876;2022-12-18T13:01:49;-0.20;67.50
13673;DHT22;6909;52.202;9.876;2022-12-18T13:04:23;-0.30;44.50
13673;DHT22;6909;52.202;9.876;2022-12-18T13:06:57;-0.30;36.10
13673;DHT22;6909;52.202;9.876;2022-12-18T13:09:30;-0.40;27.60
13673;DHT22;6909;52.202;9.876;2022-12-18T13:12:02;-0.60;28.90
13673;DHT22;6909;52.202;9.876;2022-12-18T13:14:46;-0.70;83.20
13673;DHT22;6909;52.202;9.876;2022-12-18T13:17:31;-0.90;90.40
13673;DHT22;6909;52.202;9.876;2022-12-18T13:20:07;-0.90;99.90
13673;DHT22;6909;52.202;9.876;2022-12-18T13:22:36;-1.00;99.90
13673;DHT22;6909;52.202;9.876;2022-12-18T13:25:30;-1.00;99.90
13673;DHT22;6909;52.202;9.876;2022-12-18T13:28:16;-1.00;99.90
13673;DHT22;6909;52.202;9.876;2022-12-18T13:30:53;-1.00;99.90
13673;DHT22;6909;52.202;9.876;2022-12-18T13:33:49;-1.00;99.90
13673;DHT22;6909;52.202;9.876;2022-12-18T13:36:31;-1.10;99.90
13673;DHT22;6909;52.202;9.876;2022-12-18T13:42:25;-1.10;99.90
13673;DHT22;6909;52.202;9.876;2022-12-18T13:44:55;-1.10;99.90
13673;DHT22;6909;52.202;9.876;2022-12-18T13:47:28;-1.10;99.90
13673;DHT22;6909;52.202;9.876;2022-12-18T13:50:00;-1.10;99.90
13673;DHT22;6909;52.202;9.876;2022-12-18T13:52:28;-1.20;99.90
13673;DHT22;6909;52.202;9.876;2022-12-18T13:55:02;-1.30;99.90
13673;DHT22;6909;52.202;9.876;2022-12-18T13:57:32;-1.40;99.90
13673;DHT22;6909;52.202;9.876;2022-12-18T14:00:23;-1.40;99.90
13673;DHT22;6909;52.202;9.876;2022-12-18T14:02:51;-1.50;99.90
13673;DHT22;6909;52.202;9.876;2022-12-18T14:05:26;-1.50;93.30
13673;DHT22;6909;52.202;9.876;2022-12-18T14:07:54;-1.60;99.90
13673;DHT22;6909;52.202;9.876;2022-12-18T14:10:25;-1.70;99.90
13673;DHT22;6909;52.202;9.876;2022-12-18T14:12:51;-1.80;99.90
13673;DHT22;6909;52.202;9.876;2022-12-18T14:15:31;-1.90;99.90
13673;DHT22;6909;52.202;9.876;2022-12-18T14:18:00;-2.00;99.90
13673;DHT22;6909;52.202;9.876;2022-12-18T14:20:31;-2.10;99.90
13673;DHT22;6909;52.202;9.876;2022-12-18T14:22:59;-2.10;99.90
13673;DHT22;6909;52.202;9.876;2022-12-18T14:25:27;-2.20;1.00
13673;DHT22;6909;52.202;9.876;2022-12-18T14:28:03;-2.20;1.00
13673;DHT22;6909;52.202;9.876;2022-12-18T14:30:37;-2.20;1.00
13673;DHT22;6909;52.202;9.876;2022-12-18T14:33:06;-2.20;1.00
13673;DHT22;6909;52.202;9.876;2022-12-18T14:35:38;-2.30;1.00
13673;DHT22;6909;52.202;9.876;2022-12-18T14:38:27;-2.40;1.00
13673;DHT22;6909;52.202;9.876;2022-12-18T14:40:56;-2.40;1.00
13673;DHT22;6909;52.202;9.876;2022-12-18T14:43:23;-2.40;1.00
13673;DHT22;6909;52.202;9.876;2022-12-18T14:45:51;-2.50;1.00
13673;DHT22;6909;52.202;9.876;2022-12-18T14:48:19;-2.50;1.00
13673;DHT22;6909;52.202;9.876;2022-12-18T14:50:57;-2.40;1.00
13673;DHT22;6909;52.202;9.876;2022-12-18T14:53:33;-2.40;99.90
13673;DHT22;6909;52.202;9.876;2022-12-18T14:56:00;-2.10;99.90
13673;DHT22;6909;52.202;9.876;2022-12-18T14:58:27;-2.10;99.90
13673;DHT22;6909;52.202;9.876;2022-12-18T15:00:54;-2.10;99.90
13673;DHT22;6909;52.202;9.876;2022-12-18T15:03:21;-2.20;99.90
13673;DHT22;6909;52.202;9.876;2022-12-18T15:05:48;-2.20;99.90
13673;DHT22;6909;52.202;9.876;2022-12-18T15:08:29;-2.30;99.90
13673;DHT22;6909;52.202;9.876;2022-12-18T15:10:57;-2.40;99.90
13673;DHT22;6909;52.202;9.876;2022-12-18T15:13:24;-2.50;99.90
13673;DHT22;6909;52.202;9.876;2022-12-18T15:15:52;-2.50;99.90
13673;DHT22;6909;52.202;9.876;2022-12-18T15:18:21;-2.50;99.90
13673;DHT22;6909;52.202;9.876;2022-12-18T15:20:51;-2.50;99.90
13673;DHT22;6909;52.202;9.876;2022-12-18T15:23:20;-2.50;99.90
13673;DHT22;6909;52.202;9.876;2022-12-18T15:25:55;-2.40;99.90
13673;DHT22;6909;52.202;9.876;2022-12-18T15:28:24;-2.50;99.90
13673;DHT22;6909;52.202;9.876;2022-12-18T15:31:00;-2.40;99.90
13673;DHT22;6909;52.202;9.876;2022-12-18T15:33:31;-2.40;99.90
13673;DHT22;6909;52.202;9.876;2022-12-18T15:35:58;-2.40;99.90
13673;DHT22;6909;52.202;9.876;2022-12-18T15:38:25;-2.40;99.90
13673;DHT22;6909;52.202;9.876;2022-12-18T15:40:54;-2.50;99.90
13673;DHT22;6909;52.202;9.876;2022-12-18T15:43:22;-2.50;99.90
13673;DHT22;6909;52.202;9.876;2022-12-18T15:46:02;-2.50;99.90
13673;DHT22;6909;52.202;9.876;2022-12-18T15:48:29;-2.50;99.90
13673;DHT22;6909;52.202;9.876;2022-12-18T15:50:57;-2.50;99.90
13673;DHT22;6909;52.202;9.876;2022-12-18T15:53:25;-2.50;99.90
13673;DHT22;6909;52.202;9.876;2022-12-18T15:55:55;-2.60;99.90
13673;DHT22;6909;52.202;9.876;2022-12-18T15:58:39;-2.60;99.90
13673;DHT22;6909;52.202;9.876;2022-12-18T16:01:08;-2.70;99.90
13673;DHT22;6909;52.202;9.876;2022-12-18T16:03:35;-2.80;99.90
13673;DHT22;6909;52.202;9.876;2022-12-18T16:06:02;-2.80;99.90
13673;DHT22;6909;52.202;9.876;2022-12-18T16:08:29;-2.80;1.00
13673;DHT22;6909;52.202;9.876;2022-12-18T16:10:58;-2.80;1.00
13673;DHT22;6909;52.202;9.876;2022-12-18T16:13:24;-2.90;1.00
13673;DHT22;6909;52.202;9.876;2022-12-18T16:15:54;-2.80;1.00
13673;DHT22;6909;52.202;9.876;2022-12-18T16:18:21;-2.90;1.00
13673;DHT22;6909;52.202;9.876;2022-12-18T16:20:47;-2.80;1.00
13673;DHT22;6909;52.202;9.876;2022-12-18T16:23:14;-2.80;1.00
13673;DHT22;6909;52.202;9.876;2022-12-18T16:25:41;-2.70;1.00
13673;DHT22;6909;52.202;9.876;2022-12-18T16:28:09;-2.50;1.00
13673;DHT22;6909;52.202;9.876;2022-12-18T16:30:36;-2.50;1.00
13673;DHT22;6909;52.202;9.876;2022-12-18T16:33:02;-2.60;1.00
13673;DHT22;6909;52.202;9.876;2022-12-18T16:35:29;-2.60;1.00
13673;DHT22;6909;52.202;9.876;2022-12-18T16:37:56;-2.60;1.00
13673;DHT22;6909;52.202;9.876;2022-12-18T16:40:22;-2.70;1.00
13673;DHT22;6909;52.202;9.876;2022-12-18T16:42:50;-2.70;1.00
13673;DHT22;6909;52.202;9.876;2022-12-18T16:45:18;-2.70;1.00
13673;DHT22;6909;52.202;9.876;2022-12-18T16:47:45;-2.70;1.00
13673;DHT22;6909;52.202;9.876;2022-12-18T16:50:12;-2.80;1.00
13673;DHT22;6909;52.202;9.876;2022-12-18T16:52:39;-2.80;1.00
13673;DHT22;6909;52.202;9.876;2022-12-18T16:55:06;-2.80;1.00
13673;DHT22;6909;52.202;9.876;2022-12-18T16:57:33;-2.80;1.00
13673;DHT22;6909;52.202;9.876;2022-12-18T17:00:00;-2.80;1.00
13673;DHT22;6909;52.202;9.876;2022-12-18T17:02:28;-2.80;1.00
13673;DHT22;6909;52.202;9.876;2022-12-18T17:04:56;-2.70;1.00
13673;DHT22;6909;52.202;9.876;2022-12-18T17:07:24;-2.70;1.00
13673;DHT22;6909;52.202;9.876;2022-12-18T17:09:51;-2.70;1.00
13673;DHT22;6909;52.202;9.876;2022-12-18T17:12:18;-2.70;1.00
13673;DHT22;6909;52.202;9.876;2022-12-18T17:14:45;-2.70;1.00
13673;DHT22;6909;52.202;9.876;2022-12-18T17:17:12;-2.70;1.00
13673;DHT22;6909;52.202;9.876;2022-12-18T17:19:40;-2.70;1.00
13673;DHT22;6909;52.202;9.876;2022-12-18T17:22:06;-2.50;1.00
13673;DHT22;6909;52.202;9.876;2022-12-18T17:24:34;-2.60;1.00
13673;DHT22;6909;52.202;9.876;2022-12-18T17:27:01;-2.50;1.00
13673;DHT22;6909;52.202;9.876;2022-12-18T17:29:27;-2.40;1.00
13673;DHT22;6909;52.202;9.876;2022-12-18T17:31:54;-2.40;99.90
13673;DHT22;6909;52.202;9.876;2022-12-18T17:34:21;-2.40;99.90
13673;DHT22;6909;52.202;9.876;2022-12-18T17:36:49;-2.40;99.90
13673;DHT22;6909;52.202;9.876;2022-12-18T17:39:18;-2.30;99.90
13673;DHT22;6909;52.202;9.876;2022-12-18T17:41:46;-2.30;99.90
13673;DHT22;6909;52.202;9.876;2022-12-18T17:44:13;-2.10;99.90
13673;DHT22;6909;52.202;9.876;2022-12-18T17:46:40;-1.80;99.90
13673;DHT22;6909;52.202;9.876;2022-12-18T17:49:07;-1.70;99.90
13673;DHT22;6909;52.202;9.876;2022-12-18T17:51:33;-1.10;99.90
13673;DHT22;6909;52.202;9.876;2022-12-18T17:54:01;-1.00;99.90
13673;DHT22;6909;52.202;9.876;2022-12-18T17:56:28;-0.60;99.90
13673;DHT22;6909;52.202;9.876;2022-12-18T17:58:55;-0.10;99.90
13673;DHT22;6909;52.202;9.876;2022-12-18T18:01:23;0.00;99.90
13673;DHT22;6909;52.202;9.876;2022-12-18T18:03:51;0.20;99.90
13673;DHT22;6909;52.202;9.876;2022-12-18T18:06:18;0.10;80.70
13673;DHT22;6909;52.202;9.876;2022-12-18T18:08:45;0.10;47.00
13673;DHT22;6909;52.202;9.876;2022-12-18T18:11:14;0.20;22.70
13673;DHT22;6909;52.202;9.876;2022-12-18T18:13:59;0.10;1.00
13673;DHT22;6909;52.202;9.876;2022-12-18T18:16:27;0.10;1.00
13673;DHT22;6909;52.202;9.876;2022-12-18T18:18:56;0.00;1.00
13673;DHT22;6909;52.202;9.876;2022-12-18T18:21:24;-0.10;1.00
13673;DHT22;6909;52.202;9.876;2022-12-18T18:23:50;-0.20;1.00
13673;DHT22;6909;52.202;9.876;2022-12-18T18:26:19;0.00;1.00
13673;DHT22;6909;52.202;9.876;2022-12-18T18:28:46;0.00;1.00
13673;DHT22;6909;52.202;9.876;2022-12-18T18:31:13;0.30;1.00
13673;DHT22;6909;52.202;9.876;2022-12-18T18:33:40;0.40;1.00
13673;DHT22;6909;52.202;9.876;2022-12-18T18:36:09;0.40;1.00
13673;DHT22;6909;52.202;9.876;2022-12-18T18:38:38;0.40;1.00
13673;DHT22;6909;52.202;9.876;2022-12-18T18:41:05;0.40;1.00
13673;DHT22;6909;52.202;9.876;2022-12-18T18:43:33;0.40;1.00
13673;DHT22;6909;52.202;9.876;2022-12-18T18:46:01;0.40;1.00
13673;DHT22;6909;52.202;9.876;2022-12-18T18:48:30;0.40;1.00
13673;DHT22;6909;52.202;9.876;2022-12-18T18:50:58;0.40;1.00
13673;DHT22;6909;52.202;9.876;2022-12-18T18:53:26;0.20;1.00
13673;DHT22;6909;52.202;9.876;2022-12-18T18:55:52;0.20;1.00
13673;DHT22;6909;52.202;9.876;2022-12-18T18:58:19;0.10;1.00
13673;DHT22;6909;52.202;9.876;2022-12-18T19:00:55;0.10;1.00
13673;DHT22;6909;52.202;9.876;2022-12-18T19:03:22;0.20;1.00